Air Resources Laboratory banner image
Air Resources Laboratory web site National Oceanic and Atmospheric Administration (NOAA)

az metar


KIWA 170447Z 23007KT 10SM CLR 35/18 A2982=